Terminal Aerodrome Forecast
Issued by NWS

Home | Current Version | Previous Version | Text Only | Print | Product List | Glossary On
Versions: 1 2 3 4 5 6 7 8 9 10 11 12 13
314
FTUS44 KLIX 231137
TAFMCB
TAF
KMCB 231137Z 2312/2412 00000KT P6SM SKC
     FM231300 VRB03KT P6SM SCT030 SCT110
     FM231500 VRB05KT P6SM SCT030 SCT110
     FM232000 VRB05KT P6SM VCTS SCT035CB BKN090
     FM240000 00000KT P6SM BKN040
     FM241100 VRB03KT 3SM BR BKN090=

USA.gov is the U.S. government's official web portal to all federal, state and local government web resources and services.